createdAt,value
2022-10-16T00:00:17.663Z,84.6
2022-10-16T00:03:17.671Z,84.6
2022-10-16T00:06:17.671Z,84.2
2022-10-16T00:09:17.712Z,83.9
2022-10-16T00:12:17.681Z,83.8
2022-10-16T00:15:17.682Z,83.8
2022-10-16T00:18:17.687Z,83.6
2022-10-16T00:21:17.692Z,83.6
2022-10-16T00:24:17.689Z,83.6
2022-10-16T00:27:17.714Z,83.7
2022-10-16T00:30:17.691Z,83.8
2022-10-16T00:33:17.692Z,83.8
2022-10-16T00:36:17.700Z,83.8
2022-10-16T00:39:17.698Z,83.8
2022-10-16T00:42:17.697Z,84
2022-10-16T00:45:17.730Z,84.2
2022-10-16T00:48:17.708Z,84.4
2022-10-16T00:51:17.708Z,84.5
2022-10-16T00:54:17.719Z,84.9
2022-10-16T00:57:17.744Z,85.2
2022-10-16T01:00:17.759Z,85.4
2022-10-16T01:03:17.788Z,86
2022-10-16T01:06:17.805Z,86.6
2022-10-16T01:09:17.788Z,87.2
2022-10-16T01:12:17.798Z,87.4
2022-10-16T01:15:17.814Z,87.5
2022-10-16T01:18:17.817Z,87.4
2022-10-16T01:21:17.854Z,87.7
2022-10-16T01:24:17.833Z,87.9
2022-10-16T01:27:17.851Z,88.1
2022-10-16T01:30:17.863Z,88.6
2022-10-16T01:33:17.892Z,88.9
2022-10-16T01:36:17.931Z,89.2
2022-10-16T01:39:17.935Z,89.7
2022-10-16T01:42:17.918Z,90
2022-10-16T01:45:17.933Z,90
2022-10-16T01:48:17.937Z,90.2
2022-10-16T01:51:17.958Z,90.7
2022-10-16T01:54:17.964Z,91.1
2022-10-16T01:57:18.002Z,91.4
2022-10-16T02:00:17.987Z,91.7
2022-10-16T02:03:17.994Z,91.9
2022-10-16T02:06:18.019Z,92
2022-10-16T02:09:18.011Z,92.2
2022-10-16T02:12:18.013Z,92.2
2022-10-16T02:15:18.057Z,92.3
2022-10-16T02:18:18.036Z,92.2
2022-10-16T02:21:18.055Z,92.2
2022-10-16T02:24:18.055Z,92.1
2022-10-16T02:27:18.065Z,91.9
2022-10-16T02:30:18.078Z,91.7
2022-10-16T02:33:18.103Z,91.6
2022-10-16T02:36:18.105Z,91.5
2022-10-16T02:39:18.117Z,91.4
2022-10-16T02:42:18.119Z,91.4
2022-10-16T02:45:18.128Z,91.3
2022-10-16T02:48:18.144Z,91.3
2022-10-16T02:51:18.182Z,91.2
2022-10-16T02:54:18.163Z,91.1
2022-10-16T02:57:18.168Z,91
2022-10-16T03:00:18.173Z,91
2022-10-16T03:03:18.184Z,91
2022-10-16T03:06:18.203Z,91
2022-10-16T03:09:18.222Z,90.9
2022-10-16T03:12:18.210Z,90.9
2022-10-16T03:15:18.222Z,91.1
2022-10-16T03:18:18.225Z,91.2
2022-10-16T03:21:18.249Z,91.3
2022-10-16T03:24:18.253Z,91.4
2022-10-16T03:27:18.296Z,91.4
2022-10-16T03:30:18.276Z,91.4
2022-10-16T03:33:18.287Z,91.4
2022-10-16T03:36:18.316Z,91.4
2022-10-16T03:39:18.308Z,91.6
2022-10-16T03:42:18.331Z,91.7
2022-10-16T03:45:18.362Z,91.8
2022-10-16T03:48:18.350Z,91.9
2022-10-16T03:51:18.369Z,92
2022-10-16T03:54:18.367Z,92.2
2022-10-16T03:57:18.382Z,92.3
2022-10-16T04:00:18.400Z,92.5
2022-10-16T04:03:18.428Z,92.4
2022-10-16T04:06:18.425Z,92.6
2022-10-16T04:09:18.426Z,92.7
2022-10-16T04:12:18.438Z,92.8
2022-10-16T04:15:18.446Z,92.9
2022-10-16T04:18:18.458Z,93.1
2022-10-16T04:21:18.516Z,93.2
2022-10-16T04:24:18.506Z,93.3
2022-10-16T04:27:18.526Z,93.2
2022-10-16T04:30:18.534Z,93.3
2022-10-16T04:33:18.558Z,93.3
2022-10-16T04:36:18.574Z,93.3
2022-10-16T04:39:18.601Z,93.3
2022-10-16T04:42:18.597Z,93.5
2022-10-16T04:45:18.604Z,93.6
2022-10-16T04:48:18.613Z,93.7
2022-10-16T04:51:18.640Z,93.8
2022-10-16T04:54:18.651Z,94
2022-10-16T04:57:18.685Z,94.1
2022-10-16T05:00:18.674Z,94.3
2022-10-16T05:03:18.829Z,94.5
2022-10-16T05:06:18.703Z,94.6
2022-10-16T05:09:18.716Z,94.5
2022-10-16T05:12:18.731Z,94.4
2022-10-16T05:15:18.788Z,94.3
2022-10-16T05:18:18.761Z,94.2
2022-10-16T05:21:18.782Z,94.2
2022-10-16T05:24:18.794Z,94.3
2022-10-16T05:27:18.805Z,94.4
2022-10-16T05:30:18.820Z,94.3
2022-10-16T05:33:18.855Z,94.4
2022-10-16T05:36:18.862Z,94.5
2022-10-16T05:39:18.853Z,94.8
2022-10-16T05:42:18.868Z,95.1
2022-10-16T05:45:18.890Z,95.3
2022-10-16T05:48:18.903Z,95.4
2022-10-16T05:51:18.944Z,95.4
2022-10-16T05:54:18.903Z,95.4
2022-10-16T05:57:18.904Z,95.4
2022-10-16T06:00:18.905Z,95.3
2022-10-16T06:03:18.903Z,95.2
2022-10-16T06:06:18.910Z,95
2022-10-16T06:09:18.954Z,95
2022-10-16T06:12:18.935Z,95
2022-10-16T06:15:18.932Z,95
2022-10-16T06:18:18.940Z,94.9
2022-10-16T06:21:18.942Z,95
2022-10-16T06:24:19.055Z,95.2
2022-10-16T06:27:18.967Z,95.4
2022-10-16T06:30:18.933Z,95.5
2022-10-16T06:33:18.941Z,95.6
2022-10-16T06:36:18.963Z,95.5
2022-10-16T06:39:18.945Z,95.4
2022-10-16T06:42:18.949Z,95.3
2022-10-16T06:45:18.968Z,95
2022-10-16T06:48:18.952Z,94.6
2022-10-16T06:51:18.991Z,93.9
2022-10-16T06:54:18.973Z,93.1
2022-10-16T06:57:18.965Z,92.6
2022-10-16T07:00:19.023Z,91.8
2022-10-16T07:03:18.986Z,91.1
2022-10-16T07:06:18.991Z,90.6
2022-10-16T07:09:19.018Z,89.6
2022-10-16T07:12:18.984Z,88.6
2022-10-16T07:15:18.983Z,88
2022-10-16T07:18:19.016Z,87.6
2022-10-16T07:21:19.029Z,86.5
2022-10-16T07:24:18.988Z,85.4
2022-10-16T07:27:18.988Z,84.3
2022-10-16T07:30:18.991Z,83
2022-10-16T07:33:18.996Z,81
2022-10-16T07:36:19.002Z,79.3
2022-10-16T07:39:19.024Z,77.8
2022-10-16T07:42:19.005Z,76.4
2022-10-16T07:45:19.007Z,75
2022-10-16T07:48:19.008Z,74.6
2022-10-16T07:51:19.021Z,74.3
2022-10-16T07:54:19.020Z,73.5
2022-10-16T07:57:19.055Z,72.8
2022-10-16T08:00:19.021Z,72
2022-10-16T08:03:19.027Z,71.5
2022-10-16T08:06:20.648Z,71.6
2022-10-16T08:09:19.033Z,71.5
2022-10-16T08:12:19.046Z,71.5
2022-10-16T08:15:19.076Z,70.2
2022-10-16T08:18:19.055Z,69.3
2022-10-16T08:21:21.122Z,68.9
2022-10-16T08:24:19.068Z,68.3
2022-10-16T08:27:19.064Z,67.2
2022-10-16T08:30:19.076Z,66.3
2022-10-16T08:33:19.103Z,67.8
2022-10-16T08:36:19.099Z,68
2022-10-16T08:39:19.085Z,67
2022-10-16T08:42:19.090Z,66.7
2022-10-16T08:45:19.097Z,66.9
2022-10-16T08:48:19.103Z,67.2
2022-10-16T08:51:19.141Z,66.7
2022-10-16T08:54:19.115Z,66.5
2022-10-16T08:57:21.207Z,67.7
2022-10-16T09:00:19.185Z,69
2022-10-16T09:03:19.130Z,69.6
2022-10-16T09:06:19.153Z,70.5
2022-10-16T09:09:19.165Z,69
2022-10-16T09:12:19.145Z,67.1
2022-10-16T09:15:19.150Z,65.8
2022-10-16T09:18:19.154Z,64
2022-10-16T09:21:19.178Z,63.7
2022-10-16T09:24:19.165Z,62.9
2022-10-16T09:27:19.196Z,63.1
2022-10-16T09:30:19.403Z,63.4
2022-10-16T09:33:19.183Z,62.4
2022-10-16T09:36:19.195Z,64
2022-10-16T09:39:19.195Z,65.4
2022-10-16T09:42:19.196Z,65.6
2022-10-16T09:45:19.232Z,65.3
2022-10-16T09:48:19.204Z,63.8
2022-10-16T09:51:19.228Z,61.9
2022-10-16T09:54:19.233Z,60.9
2022-10-16T09:57:19.232Z,60
2022-10-16T10:00:19.235Z,59.2
2022-10-16T10:03:19.281Z,59.7
2022-10-16T10:06:19.266Z,59.7
2022-10-16T10:09:19.252Z,59.6
2022-10-16T10:12:20.682Z,59.4
2022-10-16T10:15:19.270Z,59.9
2022-10-16T10:18:19.275Z,59.5
2022-10-16T10:21:19.325Z,58.9
2022-10-16T10:24:19.293Z,58.1
2022-10-16T10:27:19.302Z,58.5
2022-10-16T10:30:19.308Z,57.8
2022-10-16T10:33:19.313Z,57.1
2022-10-16T10:36:19.337Z,56.5
2022-10-16T10:39:19.491Z,54.2
2022-10-16T10:42:19.343Z,54.5
2022-10-16T10:45:19.347Z,53.5
2022-10-16T10:48:19.406Z,54.7
2022-10-16T10:51:19.379Z,54.2
2022-10-16T10:54:19.379Z,53.1
2022-10-16T10:57:19.405Z,52.9
2022-10-16T11:00:19.388Z,53.6
2022-10-16T11:03:19.402Z,54
2022-10-16T11:06:19.435Z,53.3
2022-10-16T11:09:19.419Z,53.7
2022-10-16T11:12:19.425Z,53.7
2022-10-16T11:15:19.462Z,52.1
2022-10-16T11:18:19.446Z,53.4
2022-10-16T11:21:19.467Z,54.6
2022-10-16T11:24:19.475Z,56.3
2022-10-16T11:27:19.478Z,57.3
2022-10-16T11:30:19.508Z,57.7
2022-10-16T11:33:19.534Z,57.3
2022-10-16T11:36:19.525Z,57.1
2022-10-16T11:39:19.537Z,56.6
2022-10-16T11:42:19.534Z,55.6
2022-10-16T11:45:19.545Z,54.8
2022-10-16T11:48:19.550Z,55.4
2022-10-16T11:51:19.591Z,56.1
2022-10-16T11:54:19.555Z,57.5
2022-10-16T11:57:19.573Z,58.9
2022-10-16T12:00:19.584Z,59.8
2022-10-16T12:03:19.667Z,59.9
2022-10-16T12:06:19.623Z,60.1
2022-10-16T12:09:19.640Z,59.8
2022-10-16T12:12:19.624Z,59.6
2022-10-16T12:15:25.935Z,59.3
2022-10-16T12:18:19.644Z,59.2
2022-10-16T12:21:19.662Z,58.5
2022-10-16T12:24:19.667Z,58.7
2022-10-16T12:27:19.702Z,58.9
2022-10-16T12:30:19.684Z,58.3
2022-10-16T12:33:19.705Z,56.5
2022-10-16T12:36:21.997Z,56
2022-10-16T12:39:19.726Z,56.3
2022-10-16T12:42:19.736Z,56.2
2022-10-16T12:45:19.778Z,57
2022-10-16T12:48:19.765Z,57.1
2022-10-16T12:51:19.785Z,57.4
2022-10-16T12:54:19.794Z,57.1
2022-10-16T12:57:19.809Z,57.2
2022-10-16T13:00:19.869Z,57.1
2022-10-16T13:03:19.855Z,56.8
2022-10-16T13:06:20.008Z,56.9
2022-10-16T13:09:19.866Z,55.9
2022-10-16T13:12:19.871Z,55.6
2022-10-16T13:15:19.883Z,56.1
2022-10-16T13:18:19.885Z,54.6
2022-10-16T13:21:19.926Z,54.7
2022-10-16T13:24:19.905Z,54.6
2022-10-16T13:27:19.905Z,54.7
2022-10-16T13:30:19.905Z,54.3
2022-10-16T13:33:19.919Z,54.4
2022-10-16T13:36:19.921Z,54.8
2022-10-16T13:39:19.947Z,54.5
2022-10-16T13:42:20.126Z,55
2022-10-16T13:45:19.929Z,54.4
2022-10-16T13:48:19.934Z,54.8
2022-10-16T13:51:20.001Z,54.4
2022-10-16T13:54:19.934Z,54.8
2022-10-16T13:57:27.019Z,54.9
2022-10-16T14:00:19.938Z,54.7
2022-10-16T14:03:19.945Z,55.3
2022-10-16T14:06:19.957Z,55
2022-10-16T14:09:19.943Z,55.1
2022-10-16T14:12:21.014Z,55.3
2022-10-16T14:15:19.983Z,55.4
2022-10-16T14:18:19.950Z,55.6
2022-10-16T14:21:19.958Z,55.5
2022-10-16T14:24:19.954Z,55.6
2022-10-16T14:27:19.946Z,55.7
2022-10-16T14:30:19.957Z,55.4
2022-10-16T14:33:19.978Z,55.5
2022-10-16T14:36:19.970Z,55.5
2022-10-16T14:39:19.955Z,56.1
2022-10-16T14:42:19.961Z,56.4
2022-10-16T14:45:19.964Z,56.8
2022-10-16T14:48:20.150Z,56.8
2022-10-16T14:51:19.992Z,56.7
2022-10-16T14:54:19.965Z,57.3
2022-10-16T14:57:19.960Z,57.5
2022-10-16T15:00:19.959Z,57.8
2022-10-16T15:03:20.008Z,58.2
2022-10-16T15:06:19.983Z,58.6
2022-10-16T15:09:19.992Z,59
2022-10-16T15:12:19.971Z,58.3
2022-10-16T15:15:19.966Z,58.2
2022-10-16T15:18:19.960Z,58.4
2022-10-16T15:21:19.977Z,58.4
2022-10-16T15:24:21.385Z,58.5
2022-10-16T15:27:19.995Z,58.9
2022-10-16T15:30:19.971Z,59.1
2022-10-16T15:33:19.975Z,59.4
2022-10-16T15:36:19.985Z,59.7
2022-10-16T15:39:19.974Z,60.1
2022-10-16T15:42:19.975Z,60.5
2022-10-16T15:45:20.002Z,61.1
2022-10-16T15:48:19.978Z,61.6
2022-10-16T15:51:19.996Z,62.2
2022-10-16T15:54:19.982Z,62.5
2022-10-16T15:57:19.991Z,62.8
2022-10-16T16:00:19.990Z,63.4
2022-10-16T16:03:20.016Z,64
2022-10-16T16:06:20.019Z,64.5
2022-10-16T16:09:19.993Z,65.2
2022-10-16T16:12:20.001Z,66
2022-10-16T16:15:19.999Z,66.7
2022-10-16T16:18:20.001Z,67.1
2022-10-16T16:21:20.034Z,67.7
2022-10-16T16:24:20.000Z,68.4
2022-10-16T16:27:20.007Z,69
2022-10-16T16:30:20.492Z,69.7
2022-10-16T16:33:20.009Z,70.2
2022-10-16T16:36:20.068Z,70.9
2022-10-16T16:39:20.041Z,71.5
2022-10-16T16:42:20.019Z,72
2022-10-16T16:45:20.082Z,72.4
2022-10-16T16:48:20.023Z,72.5
2022-10-16T16:51:20.038Z,73
2022-10-16T16:54:20.110Z,73.4
2022-10-16T16:57:20.048Z,73.5
2022-10-16T17:00:20.026Z,73.9
2022-10-16T17:03:20.028Z,74.2
2022-10-16T17:06:20.607Z,74.2
2022-10-16T17:09:20.031Z,74.7
2022-10-16T17:12:20.033Z,75.4
2022-10-16T17:15:20.060Z,76.8
2022-10-16T17:18:20.037Z,77.5
2022-10-16T17:21:20.048Z,78
2022-10-16T17:24:20.048Z,78.6
2022-10-16T17:27:20.052Z,78.7
2022-10-16T17:30:20.074Z,79.4
2022-10-16T17:33:20.084Z,80.1
2022-10-16T17:36:20.074Z,80.4
2022-10-16T17:39:20.071Z,80.4
2022-10-16T17:42:20.069Z,81
2022-10-16T17:45:20.068Z,81.1
2022-10-16T17:48:20.066Z,80.7
2022-10-16T17:51:20.102Z,80.8
2022-10-16T17:54:20.075Z,80.8
2022-10-16T17:57:20.071Z,80.9
2022-10-16T18:00:20.079Z,80.6
2022-10-16T18:03:20.082Z,80.4
2022-10-16T18:06:22.938Z,80.5
2022-10-16T18:09:20.115Z,80.3
2022-10-16T18:12:20.095Z,80.7
2022-10-16T18:15:20.091Z,80.3
2022-10-16T18:18:20.099Z,80.4
2022-10-16T18:21:20.111Z,80.5
2022-10-16T18:24:20.100Z,80.6
2022-10-16T18:27:20.130Z,80.8
2022-10-16T18:30:20.119Z,81.2
2022-10-16T18:33:20.114Z,81.2
2022-10-16T18:36:20.145Z,81.8
2022-10-16T18:39:20.118Z,82
2022-10-16T18:42:20.131Z,82.3
2022-10-16T18:45:20.153Z,82.4
2022-10-16T18:48:20.135Z,83.2
2022-10-16T18:51:20.157Z,83.5
2022-10-16T18:54:20.139Z,83.6
2022-10-16T18:57:20.135Z,83.9
2022-10-16T19:00:20.137Z,84.1
2022-10-16T19:03:20.168Z,84.1
2022-10-16T19:06:20.159Z,84.2
2022-10-16T19:09:20.145Z,84.3
2022-10-16T19:12:20.155Z,84.3
2022-10-16T19:15:20.148Z,84.3
2022-10-16T19:18:23.397Z,84.4
2022-10-16T19:21:20.194Z,84.6
2022-10-16T19:24:20.158Z,84.6
2022-10-16T19:27:20.256Z,84.7
2022-10-16T19:30:20.165Z,84.5
2022-10-16T19:33:20.167Z,84.5
2022-10-16T19:36:20.172Z,84.5
2022-10-16T19:42:20.171Z,85
2022-10-16T19:45:20.170Z,84.5
2022-10-16T19:48:20.238Z,85
2022-10-16T19:51:20.193Z,85.3
2022-10-16T19:54:20.179Z,85.4
2022-10-16T19:57:20.211Z,85.1
2022-10-16T20:00:20.185Z,85.6
2022-10-16T20:03:20.190Z,85.8
2022-10-16T20:06:20.203Z,85.9
2022-10-16T20:09:20.197Z,86.1
2022-10-16T20:12:20.206Z,86.2
2022-10-16T20:15:20.225Z,86.1
2022-10-16T20:18:20.207Z,86.4
2022-10-16T20:21:20.231Z,86.6
2022-10-16T20:24:20.215Z,86.7
2022-10-16T20:27:20.217Z,86.7
2022-10-16T20:30:20.221Z,86.7
2022-10-16T20:33:20.247Z,86.8
2022-10-16T20:36:20.237Z,86.9
2022-10-16T20:39:20.231Z,87
2022-10-16T20:42:20.241Z,87.3
2022-10-16T20:45:20.248Z,87.5
2022-10-16T20:48:20.261Z,87.5
2022-10-16T20:51:20.300Z,87.1
2022-10-16T20:54:20.264Z,87.2
2022-10-16T20:57:20.271Z,87.7
2022-10-16T21:00:20.276Z,87.8
2022-10-16T21:03:20.280Z,87.6
2022-10-16T21:06:20.298Z,87.6
2022-10-16T21:09:20.314Z,88
2022-10-16T21:12:20.293Z,88.1
2022-10-16T21:15:20.295Z,88.2
2022-10-16T21:18:20.390Z,88.1
2022-10-16T21:21:20.316Z,88
2022-10-16T21:24:20.310Z,88.2
2022-10-16T21:27:20.340Z,88.2
2022-10-16T21:30:20.326Z,88.2
2022-10-16T21:33:20.326Z,88.2
2022-10-16T21:36:20.345Z,88
2022-10-16T21:39:20.339Z,88
2022-10-16T21:42:20.441Z,88
2022-10-16T21:45:20.368Z,87.8
2022-10-16T21:48:20.343Z,87.6
2022-10-16T21:51:20.362Z,87.6
2022-10-16T21:54:20.360Z,87.6
2022-10-16T21:57:20.366Z,87.5
2022-10-16T22:00:20.367Z,87.4
2022-10-16T22:03:20.395Z,87.2
2022-10-16T22:09:20.376Z,87.5
2022-10-16T22:12:20.381Z,87.5
2022-10-16T22:15:20.446Z,87.4
2022-10-16T22:18:20.392Z,87.4
2022-10-16T22:21:20.428Z,87.3
2022-10-16T22:24:20.463Z,87.2
2022-10-16T22:27:20.407Z,87.3
2022-10-16T22:30:20.414Z,87.2
2022-10-16T22:33:20.475Z,87.2
2022-10-16T22:36:20.438Z,87.1
2022-10-16T22:39:20.459Z,86.9
2022-10-16T22:42:20.433Z,87
2022-10-16T22:45:20.443Z,87.4
2022-10-16T22:48:20.447Z,87.9
2022-10-16T22:51:20.461Z,88.3
2022-10-16T22:54:20.454Z,88.8
2022-10-16T22:57:20.491Z,89.1
2022-10-16T23:00:20.467Z,89.5
2022-10-16T23:03:20.533Z,90
2022-10-16T23:06:20.510Z,90.3
2022-10-16T23:09:20.493Z,90.5
2022-10-16T23:12:20.500Z,90.7
2022-10-16T23:15:20.530Z,90.8
2022-10-16T23:18:20.514Z,91
2022-10-16T23:21:20.530Z,91.2
2022-10-16T23:24:20.523Z,91.4
2022-10-16T23:27:20.533Z,91.6
2022-10-16T23:30:20.540Z,91.8
2022-10-16T23:33:20.581Z,91.9
2022-10-16T23:36:20.563Z,92.2
2022-10-16T23:39:20.557Z,92.4
2022-10-16T23:42:20.560Z,92.4
2022-10-16T23:45:20.567Z,92.4
2022-10-16T23:48:20.574Z,92.4
2022-10-16T23:51:20.618Z,92.3
2022-10-16T23:54:20.589Z,92.2
2022-10-16T23:57:20.593Z,92.3
